首页
METAR-TAF:

METAR-TAF

机场 :

克里沃罗格, 乌克兰

纬度: 48-03N, 经度: 033-13-12E, 海拔: 124米

当前天气观测

该预报发布于39分钟前的01:00 UTC
风速2节,风向
温度 16°C
湿度 72%
气压 1015 hPa
能见度10公里或以上
1500米以下无云,无积雨云

METAR: UKDR 180100Z 36001MPS CAVOK 16/11 Q1015 R36/09//70 NOSIG

时间: 04:39 (01:39 UTC)

预报

该预报发布于2小时和37分钟前的23:02 UTC
预报有效从18日的 00点(UTC)到 18日的 24点(UTC)
风速2节,风向多变
能见度10公里或以上
1500米以下无云,无积雨云
成为
从 18日的 04点(UTC)到 18日的 06点(UTC)
风速10节,风向,有时为19节阵风
散云层高于3000英尺
散云层高于3000英尺, 积雨云.
几率 40% :
短暂存在
从 18日的 12点(UTC)到 18日的 21点(UTC)
能見度: 3100
多云层高于3000英尺, 积雨云.
雷暴, 小雨

TAF: UKDR 172302Z 1800/1824 VRB01MPS CAVOK TX31/1812Z TN17/1802Z BECMG 1804/1806 01005G10MPS SCT030 SCT030CB PROB40 TEMPO 1812/1821 3100 -TSRA BKN030CB

超过4000个机场的气象观测和天气预报(METAR&TAF报告)。

可查询的气象台以黄色和红色小点在地图上表示。

将鼠标移到小点上方,可查看气象台名称。

然后点击查看天气观测和预报。

如需切换地图:点击带黑十字的绿色按钮放大地图;点击带横线的绿色按钮缩小地图;或者点击绿色箭头查看邻近地区的地图。


METAR-TAF: